sensor_id;sensor_type;location;lat;lon;timestamp;pressure;altitude;pressure_sealevel;temperature;humidity
28310;BME280;15571;50.974;13.936;2023-02-10T00:00:48;101871.09;;;-2.03;100.00
28310;BME280;15571;50.974;13.936;2023-02-10T00:03:54;101873.44;;;-2.06;100.00
28310;BME280;15571;50.974;13.936;2023-02-10T00:06:59;101870.69;;;-2.09;100.00
28310;BME280;15571;50.974;13.936;2023-02-10T00:10:03;101874.78;;;-2.11;100.00
28310;BME280;15571;50.974;13.936;2023-02-10T00:13:08;101877.25;;;-2.12;100.00
28310;BME280;15571;50.974;13.936;2023-02-10T00:16:16;101877.91;;;-2.15;100.00
28310;BME280;15571;50.974;13.936;2023-02-10T00:19:20;101866.53;;;-2.19;100.00
28310;BME280;15571;50.974;13.936;2023-02-10T00:22:23;101869.78;;;-2.21;100.00
28310;BME280;15571;50.974;13.936;2023-02-10T00:25:26;101870.13;;;-2.28;100.00
28310;BME280;15571;50.974;13.936;2023-02-10T00:28:32;101857.63;;;-2.36;100.00
28310;BME280;15571;50.974;13.936;2023-02-10T00:31:35;101869.97;;;-2.42;100.00
28310;BME280;15571;50.974;13.936;2023-02-10T00:34:39;101865.63;;;-2.43;100.00
28310;BME280;15571;50.974;13.936;2023-02-10T00:37:41;101870.66;;;-2.44;100.00
28310;BME280;15571;50.974;13.936;2023-02-10T00:40:44;101877.91;;;-2.51;100.00
28310;BME280;15571;50.974;13.936;2023-02-10T00:43:46;101885.25;;;-2.55;100.00
28310;BME280;15571;50.974;13.936;2023-02-10T00:46:49;101885.25;;;-2.55;100.00
28310;BME280;15571;50.974;13.936;2023-02-10T00:49:56;101891.94;;;-2.57;100.00
28310;BME280;15571;50.974;13.936;2023-02-10T00:52:58;101890.16;;;-2.58;100.00
28310;BME280;15571;50.974;13.936;2023-02-10T00:56:03;101897.50;;;-2.63;100.00
28310;BME280;15571;50.974;13.936;2023-02-10T00:59:09;101889.72;;;-2.64;100.00
28310;BME280;15571;50.974;13.936;2023-02-10T01:02:15;101889.47;;;-2.68;100.00
28310;BME280;15571;50.974;13.936;2023-02-10T01:05:20;101889.91;;;-2.73;100.00
28310;BME280;15571;50.974;13.936;2023-02-10T01:08:27;101890.31;;;-2.79;100.00
28310;BME280;15571;50.974;13.936;2023-02-10T01:11:32;101884.94;;;-2.82;100.00
28310;BME280;15571;50.974;13.936;2023-02-10T01:14:37;101890.09;;;-2.82;100.00
28310;BME280;15571;50.974;13.936;2023-02-10T01:17:39;101901.66;;;-2.87;100.00
28310;BME280;15571;50.974;13.936;2023-02-10T01:20:43;101890.50;;;-2.88;100.00
28310;BME280;15571;50.974;13.936;2023-02-10T01:23:47;101886.28;;;-2.87;100.00
28310;BME280;15571;50.974;13.936;2023-02-10T01:26:52;101896.53;;;-2.87;100.00
28310;BME280;15571;50.974;13.936;2023-02-10T01:29:56;101906.56;;;-2.90;100.00
28310;BME280;15571;50.974;13.936;2023-02-10T01:32:58;101899.78;;;-2.90;100.00
28310;BME280;15571;50.974;13.936;2023-02-10T01:36:04;101905.53;;;-2.92;100.00
28310;BME280;15571;50.974;13.936;2023-02-10T01:39:10;101910.19;;;-2.99;100.00
28310;BME280;15571;50.974;13.936;2023-02-10T01:42:15;101909.19;;;-3.01;100.00
28310;BME280;15571;50.974;13.936;2023-02-10T01:45:24;101917.19;;;-3.08;100.00
28310;BME280;15571;50.974;13.936;2023-02-10T01:48:31;101913.59;;;-3.10;100.00
28310;BME280;15571;50.974;13.936;2023-02-10T01:51:38;101918.38;;;-3.15;100.00
28310;BME280;15571;50.974;13.936;2023-02-10T01:54:44;101913.91;;;-3.17;100.00
28310;BME280;15571;50.974;13.936;2023-02-10T01:57:47;101909.81;;;-3.15;100.00
28310;BME280;15571;50.974;13.936;2023-02-10T02:00:54;101912.72;;;-3.10;100.00
28310;BME280;15571;50.974;13.936;2023-02-10T02:03:58;101902.84;;;-3.06;100.00
28310;BME280;15571;50.974;13.936;2023-02-10T02:07:03;101905.06;;;-2.99;100.00
28310;BME280;15571;50.974;13.936;2023-02-10T02:10:07;101903.53;;;-2.97;100.00
28310;BME280;15571;50.974;13.936;2023-02-10T02:13:12;101894.94;;;-2.97;100.00
28310;BME280;15571;50.974;13.936;2023-02-10T02:16:22;101903.88;;;-2.92;100.00
28310;BME280;15571;50.974;13.936;2023-02-10T02:23:01;101907.56;;;-2.88;100.00
28310;BME280;15571;50.974;13.936;2023-02-10T02:29:44;101914.13;;;-2.92;100.00
28310;BME280;15571;50.974;13.936;2023-02-10T02:32:59;101911.44;;;-2.93;100.00
28310;BME280;15571;50.974;13.936;2023-02-10T02:36:06;101918.66;;;-3.00;100.00
28310;BME280;15571;50.974;13.936;2023-02-10T02:39:10;101921.78;;;-3.04;100.00
28310;BME280;15571;50.974;13.936;2023-02-10T02:42:14;101918.97;;;-3.07;100.00
28310;BME280;15571;50.974;13.936;2023-02-10T02:45:18;101917.84;;;-3.10;100.00
28310;BME280;15571;50.974;13.936;2023-02-10T02:48:40;101915.16;;;-3.12;100.00
28310;BME280;15571;50.974;13.936;2023-02-10T02:51:49;101913.59;;;-3.10;100.00
28310;BME280;15571;50.974;13.936;2023-02-10T02:54:59;101910.16;;;-3.10;100.00
28310;BME280;15571;50.974;13.936;2023-02-10T02:58:11;101914.94;;;-3.15;100.00
28310;BME280;15571;50.974;13.936;2023-02-10T03:01:19;101919.81;;;-3.18;100.00
28310;BME280;15571;50.974;13.936;2023-02-10T03:04:30;101918.78;;;-3.20;100.00
28310;BME280;15571;50.974;13.936;2023-02-10T03:07:35;101919.56;;;-3.21;100.00
28310;BME280;15571;50.974;13.936;2023-02-10T03:10:40;101918.69;;;-3.22;100.00
28310;BME280;15571;50.974;13.936;2023-02-10T03:13:44;101912.44;;;-3.25;100.00
28310;BME280;15571;50.974;13.936;2023-02-10T03:16:50;101910.41;;;-3.30;100.00
28310;BME280;15571;50.974;13.936;2023-02-10T03:19:54;101919.75;;;-3.30;100.00
28310;BME280;15571;50.974;13.936;2023-02-10T03:23:04;101922.31;;;-3.30;100.00
28310;BME280;15571;50.974;13.936;2023-02-10T03:26:06;101919.00;;;-3.29;100.00
28310;BME280;15571;50.974;13.936;2023-02-10T03:29:09;101927.56;;;-3.29;100.00
28310;BME280;15571;50.974;13.936;2023-02-10T03:32:12;101925.75;;;-3.30;100.00
28310;BME280;15571;50.974;13.936;2023-02-10T03:35:29;101922.06;;;-3.33;100.00
28310;BME280;15571;50.974;13.936;2023-02-10T03:38:32;101926.53;;;-3.31;100.00
28310;BME280;15571;50.974;13.936;2023-02-10T03:41:34;101927.09;;;-3.35;100.00
28310;BME280;15571;50.974;13.936;2023-02-10T03:44:37;101926.16;;;-3.35;100.00
28310;BME280;15571;50.974;13.936;2023-02-10T03:47:39;101931.53;;;-3.32;100.00
28310;BME280;15571;50.974;13.936;2023-02-10T03:50:43;101933.44;;;-3.30;100.00
28310;BME280;15571;50.974;13.936;2023-02-10T03:53:46;101932.78;;;-3.27;100.00
28310;BME280;15571;50.974;13.936;2023-02-10T03:56:48;101934.06;;;-3.22;100.00
28310;BME280;15571;50.974;13.936;2023-02-10T03:59:51;101928.25;;;-3.19;100.00
28310;BME280;15571;50.974;13.936;2023-02-10T04:02:53;101922.47;;;-3.17;100.00
28310;BME280;15571;50.974;13.936;2023-02-10T04:05:57;101918.63;;;-3.11;100.00
28310;BME280;15571;50.974;13.936;2023-02-10T04:09:00;101920.53;;;-3.09;100.00
28310;BME280;15571;50.974;13.936;2023-02-10T04:12:03;101933.09;;;-3.12;100.00
28310;BME280;15571;50.974;13.936;2023-02-10T04:15:11;101939.53;;;-3.17;100.00
28310;BME280;15571;50.974;13.936;2023-02-10T04:18:18;101931.75;;;-3.19;100.00
28310;BME280;15571;50.974;13.936;2023-02-10T04:21:22;101930.06;;;-3.18;100.00
28310;BME280;15571;50.974;13.936;2023-02-10T04:24:27;101920.84;;;-3.16;100.00
28310;BME280;15571;50.974;13.936;2023-02-10T04:27:29;101916.72;;;-3.14;100.00
28310;BME280;15571;50.974;13.936;2023-02-10T04:30:32;101916.16;;;-3.10;100.00
28310;BME280;15571;50.974;13.936;2023-02-10T04:33:37;101920.63;;;-3.07;100.00
28310;BME280;15571;50.974;13.936;2023-02-10T04:36:43;101922.56;;;-3.05;100.00
28310;BME280;15571;50.974;13.936;2023-02-10T04:39:46;101934.59;;;-3.04;100.00
28310;BME280;15571;50.974;13.936;2023-02-10T04:42:48;101947.63;;;-3.01;100.00
28310;BME280;15571;50.974;13.936;2023-02-10T04:45:52;101950.19;;;-3.01;100.00
28310;BME280;15571;50.974;13.936;2023-02-10T04:48:54;101955.44;;;-2.99;100.00
28310;BME280;15571;50.974;13.936;2023-02-10T04:51:59;101960.94;;;-2.94;100.00
28310;BME280;15571;50.974;13.936;2023-02-10T04:55:01;101973.19;;;-2.90;100.00
28310;BME280;15571;50.974;13.936;2023-02-10T04:58:06;101976.34;;;-2.83;100.00
28310;BME280;15571;50.974;13.936;2023-02-10T05:01:08;101976.94;;;-2.75;100.00
28310;BME280;15571;50.974;13.936;2023-02-10T05:04:13;101979.97;;;-2.69;100.00
28310;BME280;15571;50.974;13.936;2023-02-10T05:07:17;101985.56;;;-2.62;100.00
28310;BME280;15571;50.974;13.936;2023-02-10T05:10:22;101993.59;;;-2.58;100.00
28310;BME280;15571;50.974;13.936;2023-02-10T05:13:27;101993.06;;;-2.54;100.00
28310;BME280;15571;50.974;13.936;2023-02-10T05:16:30;102006.34;;;-2.47;100.00
28310;BME280;15571;50.974;13.936;2023-02-10T05:19:45;102008.25;;;-2.45;100.00
28310;BME280;15571;50.974;13.936;2023-02-10T05:22:50;102016.59;;;-2.47;100.00
28310;BME280;15571;50.974;13.936;2023-02-10T05:25:52;102012.13;;;-2.50;100.00
28310;BME280;15571;50.974;13.936;2023-02-10T05:28:55;102020.84;;;-2.48;100.00
28310;BME280;15571;50.974;13.936;2023-02-10T05:31:57;102018.50;;;-2.45;100.00
28310;BME280;15571;50.974;13.936;2023-02-10T05:35:05;102025.66;;;-2.41;100.00
28310;BME280;15571;50.974;13.936;2023-02-10T05:38:11;102032.94;;;-2.35;100.00
28310;BME280;15571;50.974;13.936;2023-02-10T05:41:17;102030.59;;;-2.32;100.00
28310;BME280;15571;50.974;13.936;2023-02-10T05:44:26;102024.91;;;-2.28;100.00
28310;BME280;15571;50.974;13.936;2023-02-10T05:47:30;102013.22;;;-2.24;100.00
28310;BME280;15571;50.974;13.936;2023-02-10T05:50:33;102022.94;;;-2.20;100.00
28310;BME280;15571;50.974;13.936;2023-02-10T05:53:37;102029.09;;;-2.18;100.00
28310;BME280;15571;50.974;13.936;2023-02-10T05:56:42;102026.72;;;-2.15;100.00
28310;BME280;15571;50.974;13.936;2023-02-10T05:59:47;102032.00;;;-2.13;100.00
28310;BME280;15571;50.974;13.936;2023-02-10T06:02:50;102039.91;;;-2.10;100.00
28310;BME280;15571;50.974;13.936;2023-02-10T06:05:52;102040.03;;;-2.09;100.00
28310;BME280;15571;50.974;13.936;2023-02-10T06:08:59;102031.78;;;-2.05;100.00
28310;BME280;15571;50.974;13.936;2023-02-10T06:12:04;102036.81;;;-2.06;100.00
28310;BME280;15571;50.974;13.936;2023-02-10T06:15:09;102038.34;;;-2.08;100.00
28310;BME280;15571;50.974;13.936;2023-02-10T06:18:14;102039.38;;;-2.06;100.00
28310;BME280;15571;50.974;13.936;2023-02-10T06:21:17;102036.91;;;-2.05;100.00
28310;BME280;15571;50.974;13.936;2023-02-10T06:24:21;102037.91;;;-2.03;100.00
28310;BME280;15571;50.974;13.936;2023-02-10T06:27:24;102036.38;;;-2.00;100.00
28310;BME280;15571;50.974;13.936;2023-02-10T06:30:30;102043.28;;;-1.99;100.00
28310;BME280;15571;50.974;13.936;2023-02-10T06:33:35;102051.09;;;-1.98;100.00
28310;BME280;15571;50.974;13.936;2023-02-10T06:36:38;102064.06;;;-1.96;100.00
28310;BME280;15571;50.974;13.936;2023-02-10T06:39:45;102069.19;;;-1.96;100.00
28310;BME280;15571;50.974;13.936;2023-02-10T06:42:48;102074.09;;;-1.99;100.00
28310;BME280;15571;50.974;13.936;2023-02-10T06:45:55;102067.16;;;-2.00;100.00
28310;BME280;15571;50.974;13.936;2023-02-10T06:48:58;102074.09;;;-1.99;100.00
28310;BME280;15571;50.974;13.936;2023-02-10T06:52:03;102070.09;;;-1.96;100.00
28310;BME280;15571;50.974;13.936;2023-02-10T06:55:16;102071.97;;;-1.93;100.00
28310;BME280;15571;50.974;13.936;2023-02-10T06:58:27;102071.44;;;-1.89;100.00
28310;BME280;15571;50.974;13.936;2023-02-10T07:01:30;102076.56;;;-1.89;100.00
28310;BME280;15571;50.974;13.936;2023-02-10T07:04:39;102088.63;;;-1.88;100.00
28310;BME280;15571;50.974;13.936;2023-02-10T07:07:42;102086.59;;;-1.92;100.00
28310;BME280;15571;50.974;13.936;2023-02-10T07:10:48;102085.81;;;-1.91;100.00
28310;BME280;15571;50.974;13.936;2023-02-10T07:13:53;102089.50;;;-1.88;100.00
28310;BME280;15571;50.974;13.936;2023-02-10T07:16:56;102091.41;;;-1.85;100.00
28310;BME280;15571;50.974;13.936;2023-02-10T07:20:01;102093.44;;;-1.81;100.00
28310;BME280;15571;50.974;13.936;2023-02-10T07:23:09;102091.13;;;-1.78;100.00
28310;BME280;15571;50.974;13.936;2023-02-10T07:26:19;102099.78;;;-1.76;100.00
28310;BME280;15571;50.974;13.936;2023-02-10T07:29:27;102087.97;;;-1.74;100.00
28310;BME280;15571;50.974;13.936;2023-02-10T07:32:30;102106.84;;;-1.73;100.00
28310;BME280;15571;50.974;13.936;2023-02-10T07:35:32;102119.03;;;-1.70;100.00
28310;BME280;15571;50.974;13.936;2023-02-10T07:38:35;102114.13;;;-1.67;100.00
28310;BME280;15571;50.974;13.936;2023-02-10T07:41:39;102106.63;;;-1.64;100.00
28310;BME280;15571;50.974;13.936;2023-02-10T07:44:42;102100.97;;;-1.60;100.00
28310;BME280;15571;50.974;13.936;2023-02-10T07:47:45;102093.59;;;-1.55;100.00
28310;BME280;15571;50.974;13.936;2023-02-10T07:50:52;102102.41;;;-1.52;100.00
28310;BME280;15571;50.974;13.936;2023-02-10T07:53:55;102109.44;;;-1.49;100.00
28310;BME280;15571;50.974;13.936;2023-02-10T07:57:00;102108.56;;;-1.50;100.00
28310;BME280;15571;50.974;13.936;2023-02-10T08:00:03;102100.28;;;-1.46;100.00
28310;BME280;15571;50.974;13.936;2023-02-10T08:03:13;102095.38;;;-1.43;100.00
28310;BME280;15571;50.974;13.936;2023-02-10T08:06:18;102106.00;;;-1.38;100.00
28310;BME280;15571;50.974;13.936;2023-02-10T08:09:24;102104.53;;;-1.34;100.00
28310;BME280;15571;50.974;13.936;2023-02-10T08:12:31;102110.78;;;-1.31;100.00
28310;BME280;15571;50.974;13.936;2023-02-10T08:15:36;102122.75;;;-1.31;100.00
28310;BME280;15571;50.974;13.936;2023-02-10T08:18:43;102125.09;;;-1.34;100.00
28310;BME280;15571;50.974;13.936;2023-02-10T08:21:48;102124.88;;;-1.37;100.00
28310;BME280;15571;50.974;13.936;2023-02-10T08:24:50;102130.03;;;-1.37;100.00
28310;BME280;15571;50.974;13.936;2023-02-10T08:27:54;102128.69;;;-1.32;100.00
28310;BME280;15571;50.974;13.936;2023-02-10T08:30:58;102111.91;;;-1.27;100.00
28310;BME280;15571;50.974;13.936;2023-02-10T08:34:01;102110.81;;;-1.19;100.00
28310;BME280;15571;50.974;13.936;2023-02-10T08:37:03;102112.13;;;-1.12;100.00
28310;BME280;15571;50.974;13.936;2023-02-10T08:40:15;102114.38;;;-1.05;100.00
28310;BME280;15571;50.974;13.936;2023-02-10T08:43:20;102117.28;;;-1.00;100.00
28310;BME280;15571;50.974;13.936;2023-02-10T08:46:22;102119.28;;;-0.96;100.00
28310;BME280;15571;50.974;13.936;2023-02-10T08:49:25;102120.38;;;-0.92;100.00
28310;BME280;15571;50.974;13.936;2023-02-10T08:52:30;102122.19;;;-0.91;100.00
28310;BME280;15571;50.974;13.936;2023-02-10T08:55:33;102123.28;;;-0.88;100.00
28310;BME280;15571;50.974;13.936;2023-02-10T08:58:37;102118.38;;;-0.85;100.00
28310;BME280;15571;50.974;13.936;2023-02-10T09:01:39;102129.13;;;-0.79;100.00
28310;BME280;15571;50.974;13.936;2023-02-10T09:04:45;102138.28;;;-0.70;100.00
28310;BME280;15571;50.974;13.936;2023-02-10T09:07:47;102147.19;;;-0.65;100.00
28310;BME280;15571;50.974;13.936;2023-02-10T09:10:50;102146.06;;;-0.57;100.00
28310;BME280;15571;50.974;13.936;2023-02-10T09:13:59;102144.72;;;-0.52;100.00
28310;BME280;15571;50.974;13.936;2023-02-10T09:17:02;102147.81;;;-0.44;100.00
28310;BME280;15571;50.974;13.936;2023-02-10T09:20:05;102155.19;;;-0.37;100.00
28310;BME280;15571;50.974;13.936;2023-02-10T09:23:12;102167.59;;;-0.31;100.00
28310;BME280;15571;50.974;13.936;2023-02-10T09:26:15;102168.78;;;-0.26;100.00
28310;BME280;15571;50.974;13.936;2023-02-10T09:29:25;102170.81;;;-0.22;100.00
28310;BME280;15571;50.974;13.936;2023-02-10T09:32:29;102172.78;;;-0.18;100.00
28310;BME280;15571;50.974;13.936;2023-02-10T09:35:34;102176.59;;;-0.12;100.00
28310;BME280;15571;50.974;13.936;2023-02-10T09:38:38;102179.38;;;-0.09;100.00
28310;BME280;15571;50.974;13.936;2023-02-10T09:41:45;102168.50;;;-0.05;100.00
28310;BME280;15571;50.974;13.936;2023-02-10T09:44:52;102168.81;;;-0.01;100.00
28310;BME280;15571;50.974;13.936;2023-02-10T09:47:59;102162.19;;;0.03;100.00
28310;BME280;15571;50.974;13.936;2023-02-10T09:51:08;102154.69;;;0.06;100.00
28310;BME280;15571;50.974;13.936;2023-02-10T09:54:15;102156.78;;;0.12;100.00
28310;BME280;15571;50.974;13.936;2023-02-10T09:57:20;102158.78;;;0.16;100.00
28310;BME280;15571;50.974;13.936;2023-02-10T10:00:28;102163.25;;;0.19;100.00
28310;BME280;15571;50.974;13.936;2023-02-10T10:03:37;102163.56;;;0.23;100.00
28310;BME280;15571;50.974;13.936;2023-02-10T10:06:43;102161.19;;;0.26;100.00
28310;BME280;15571;50.974;13.936;2023-02-10T10:09:54;102160.63;;;0.30;100.00
28310;BME280;15571;50.974;13.936;2023-02-10T10:13:06;102157.56;;;0.36;100.00
28310;BME280;15571;50.974;13.936;2023-02-10T10:16:19;102157.75;;;0.39;100.00
28310;BME280;15571;50.974;13.936;2023-02-10T10:19:26;102156.28;;;0.43;100.00
28310;BME280;15571;50.974;13.936;2023-02-10T10:22:37;102159.97;;;0.46;100.00
28310;BME280;15571;50.974;13.936;2023-02-10T10:25:48;102156.78;;;0.51;100.00
28310;BME280;15571;50.974;13.936;2023-02-10T10:28:55;102148.47;;;0.55;100.00
28310;BME280;15571;50.974;13.936;2023-02-10T10:32:04;102139.25;;;0.58;100.00
28310;BME280;15571;50.974;13.936;2023-02-10T10:35:14;102148.09;;;0.62;100.00
28310;BME280;15571;50.974;13.936;2023-02-10T10:38:19;102150.09;;;0.66;100.00
28310;BME280;15571;50.974;13.936;2023-02-10T10:41:25;102141.66;;;0.69;100.00
28310;BME280;15571;50.974;13.936;2023-02-10T10:44:29;102146.31;;;0.74;100.00
28310;BME280;15571;50.974;13.936;2023-02-10T10:48:04;102143.97;;;0.77;100.00
28310;BME280;15571;50.974;13.936;2023-02-10T10:51:08;102142.47;;;0.81;100.00
28310;BME280;15571;50.974;13.936;2023-02-10T10:54:12;102140.97;;;0.85;100.00
28310;BME280;15571;50.974;13.936;2023-02-10T10:57:18;102138.59;;;0.88;100.00
28310;BME280;15571;50.974;13.936;2023-02-10T11:00:22;102143.94;;;0.91;100.00
28310;BME280;15571;50.974;13.936;2023-02-10T11:03:26;102141.66;;;0.96;100.00
28310;BME280;15571;50.974;13.936;2023-02-10T11:06:31;102135.91;;;1.00;100.00
28310;BME280;15571;50.974;13.936;2023-02-10T11:09:35;102129.28;;;1.03;100.00
28310;BME280;15571;50.974;13.936;2023-02-10T11:12:38;102139.00;;;1.07;100.00
28310;BME280;15571;50.974;13.936;2023-02-10T11:15:41;102142.53;;;1.09;100.00
28310;BME280;15571;50.974;13.936;2023-02-10T11:18:53;102153.66;;;1.08;100.00
28310;BME280;15571;50.974;13.936;2023-02-10T11:21:55;102150.69;;;1.16;100.00
28310;BME280;15571;50.974;13.936;2023-02-10T11:25:03;102159.53;;;1.19;100.00
28310;BME280;15571;50.974;13.936;2023-02-10T11:28:16;102154.66;;;1.24;100.00
28310;BME280;15571;50.974;13.936;2023-02-10T11:31:28;102153.06;;;1.26;100.00
28310;BME280;15571;50.974;13.936;2023-02-10T11:34:37;102153.66;;;1.35;100.00
28310;BME280;15571;50.974;13.936;2023-02-10T11:37:40;102152.94;;;1.38;100.00
28310;BME280;15571;50.974;13.936;2023-02-10T11:40:50;102150.28;;;1.36;100.00
28310;BME280;15571;50.974;13.936;2023-02-10T11:43:52;102158.03;;;1.36;100.00
28310;BME280;15571;50.974;13.936;2023-02-10T11:46:55;102153.03;;;1.39;100.00
28310;BME280;15571;50.974;13.936;2023-02-10T11:50:19;102157.59;;;1.44;100.00
28310;BME280;15571;50.974;13.936;2023-02-10T11:53:22;102156.91;;;1.46;100.00
28310;BME280;15571;50.974;13.936;2023-02-10T11:56:26;102151.03;;;1.49;100.00
28310;BME280;15571;50.974;13.936;2023-02-10T11:59:51;102156.38;;;1.52;100.00
28310;BME280;15571;50.974;13.936;2023-02-10T12:06:23;102157.47;;;1.55;100.00
28310;BME280;15571;50.974;13.936;2023-02-10T12:09:27;102166.22;;;1.58;100.00
28310;BME280;15571;50.974;13.936;2023-02-10T12:12:33;102156.88;;;1.60;100.00
28310;BME280;15571;50.974;13.936;2023-02-10T12:15:41;102152.69;;;1.62;100.00
28310;BME280;15571;50.974;13.936;2023-02-10T12:18:52;102155.47;;;1.65;100.00
28310;BME280;15571;50.974;13.936;2023-02-10T12:21:59;102157.25;;;1.66;100.00
28310;BME280;15571;50.974;13.936;2023-02-10T12:25:10;102155.38;;;1.63;100.00
28310;BME280;15571;50.974;13.936;2023-02-10T12:28:18;102156.66;;;1.70;100.00
28310;BME280;15571;50.974;13.936;2023-02-10T12:31:28;102143.13;;;1.74;100.00
28310;BME280;15571;50.974;13.936;2023-02-10T12:34:44;102144.19;;;1.78;100.00
28310;BME280;15571;50.974;13.936;2023-02-10T12:37:55;102149.34;;;1.78;100.00
28310;BME280;15571;50.974;13.936;2023-02-10T12:41:03;102147.97;;;1.83;100.00
28310;BME280;15571;50.974;13.936;2023-02-10T12:44:22;102144.47;;;1.82;100.00
28310;BME280;15571;50.974;13.936;2023-02-10T12:47:32;102136.50;;;1.93;100.00
28310;BME280;15571;50.974;13.936;2023-02-10T12:50:43;102123.84;;;1.97;100.00
28310;BME280;15571;50.974;13.936;2023-02-10T12:53:53;102113.72;;;2.00;100.00
28310;BME280;15571;50.974;13.936;2023-02-10T12:56:57;102116.66;;;2.07;100.00
28310;BME280;15571;50.974;13.936;2023-02-10T13:00:02;102114.53;;;2.14;100.00
28310;BME280;15571;50.974;13.936;2023-02-10T13:03:07;102101.88;;;2.19;100.00
28310;BME280;15571;50.974;13.936;2023-02-10T13:06:16;102098.69;;;2.23;100.00
28310;BME280;15571;50.974;13.936;2023-02-10T13:09:21;102099.84;;;2.28;100.00
28310;BME280;15571;50.974;13.936;2023-02-10T13:12:27;102094.13;;;2.34;100.00
28310;BME280;15571;50.974;13.936;2023-02-10T13:15:31;102094.41;;;2.39;100.00
28310;BME280;15571;50.974;13.936;2023-02-10T13:18:35;102091.09;;;2.41;100.00
28310;BME280;15571;50.974;13.936;2023-02-10T13:21:39;102101.91;;;2.49;100.00
28310;BME280;15571;50.974;13.936;2023-02-10T13:24:54;102089.22;;;2.54;100.00
28310;BME280;15571;50.974;13.936;2023-02-10T13:28:01;102087.72;;;2.57;100.00
28310;BME280;15571;50.974;13.936;2023-02-10T13:31:15;102080.13;;;2.60;100.00
28310;BME280;15571;50.974;13.936;2023-02-10T13:34:21;102079.53;;;2.64;100.00
28310;BME280;15571;50.974;13.936;2023-02-10T13:37:28;102078.88;;;2.69;100.00
28310;BME280;15571;50.974;13.936;2023-02-10T13:40:44;102080.66;;;2.70;100.00
28310;BME280;15571;50.974;13.936;2023-02-10T13:43:53;102080.84;;;2.73;100.00
28310;BME280;15571;50.974;13.936;2023-02-10T13:47:08;102079.94;;;2.72;100.00
28310;BME280;15571;50.974;13.936;2023-02-10T13:50:18;102081.00;;;2.76;100.00
28310;BME280;15571;50.974;13.936;2023-02-10T13:53:26;102081.09;;;2.77;100.00
28310;BME280;15571;50.974;13.936;2023-02-10T13:56:30;102079.47;;;2.79;100.00
28310;BME280;15571;50.974;13.936;2023-02-10T13:59:38;102074.41;;;2.81;100.00
28310;BME280;15571;50.974;13.936;2023-02-10T14:02:44;102070.09;;;2.82;100.00
28310;BME280;15571;50.974;13.936;2023-02-10T14:06:02;102062.44;;;2.83;100.00
28310;BME280;15571;50.974;13.936;2023-02-10T14:09:18;102061.63;;;2.84;100.00
28310;BME280;15571;50.974;13.936;2023-02-10T14:12:25;102050.47;;;2.85;100.00
28310;BME280;15571;50.974;13.936;2023-02-10T14:15:32;102054.03;;;2.87;100.00
28310;BME280;15571;50.974;13.936;2023-02-10T14:18:43;102060.13;;;2.88;100.00
28310;BME280;15571;50.974;13.936;2023-02-10T14:21:46;102047.19;;;2.88;100.00
28310;BME280;15571;50.974;13.936;2023-02-10T14:24:49;102042.88;;;2.88;100.00
28310;BME280;15571;50.974;13.936;2023-02-10T14:27:53;102045.47;;;2.88;100.00
28310;BME280;15571;50.974;13.936;2023-02-10T14:30:57;102044.66;;;2.89;100.00
28310;BME280;15571;50.974;13.936;2023-02-10T14:34:02;102040.38;;;2.90;100.00
28310;BME280;15571;50.974;13.936;2023-02-10T14:37:13;102048.88;;;2.87;100.00
28310;BME280;15571;50.974;13.936;2023-02-10T14:40:16;102050.09;;;2.94;100.00
28310;BME280;15571;50.974;13.936;2023-02-10T14:43:21;102055.34;;;2.95;100.00
28310;BME280;15571;50.974;13.936;2023-02-10T14:46:31;102053.56;;;2.94;100.00
28310;BME280;15571;50.974;13.936;2023-02-10T14:49:40;102049.28;;;2.95;100.00
28310;BME280;15571;50.974;13.936;2023-02-10T14:52:45;102050.16;;;2.95;100.00
28310;BME280;15571;50.974;13.936;2023-02-10T14:55:51;102046.72;;;2.95;100.00
28310;BME280;15571;50.974;13.936;2023-02-10T14:58:55;102037.16;;;2.94;100.00
28310;BME280;15571;50.974;13.936;2023-02-10T15:01:57;102044.13;;;2.95;100.00
28310;BME280;15571;50.974;13.936;2023-02-10T15:05:01;102032.06;;;2.95;100.00
28310;BME280;15571;50.974;13.936;2023-02-10T15:08:04;102030.47;;;2.98;100.00
28310;BME280;15571;50.974;13.936;2023-02-10T15:11:07;102026.09;;;2.96;100.00
28310;BME280;15571;50.974;13.936;2023-02-10T15:14:13;102036.44;;;2.96;100.00
28310;BME280;15571;50.974;13.936;2023-02-10T15:17:18;102032.97;;;2.96;100.00
28310;BME280;15571;50.974;13.936;2023-02-10T15:20:27;102021.72;;;2.95;100.00
28310;BME280;15571;50.974;13.936;2023-02-10T15:23:31;102022.50;;;2.94;100.00
28310;BME280;15571;50.974;13.936;2023-02-10T15:26:33;102030.38;;;2.96;100.00
28310;BME280;15571;50.974;13.936;2023-02-10T15:29:41;102022.50;;;2.94;100.00
28310;BME280;15571;50.974;13.936;2023-02-10T15:32:46;102020.75;;;2.93;100.00
28310;BME280;15571;50.974;13.936;2023-02-10T15:35:50;102013.00;;;2.93;100.00
28310;BME280;15571;50.974;13.936;2023-02-10T15:38:53;102017.19;;;2.91;100.00
28310;BME280;15571;50.974;13.936;2023-02-10T15:42:01;102007.66;;;2.90;100.00
28310;BME280;15571;50.974;13.936;2023-02-10T15:45:12;102013.63;;;2.89;100.00
28310;BME280;15571;50.974;13.936;2023-02-10T15:48:17;102011.84;;;2.88;100.00
28310;BME280;15571;50.974;13.936;2023-02-10T15:51:21;102011.78;;;2.87;100.00
28310;BME280;15571;50.974;13.936;2023-02-10T15:54:26;102011.78;;;2.87;100.00
28310;BME280;15571;50.974;13.936;2023-02-10T15:57:29;102015.22;;;2.87;100.00
28310;BME280;15571;50.974;13.936;2023-02-10T16:00:33;102003.03;;;2.85;100.00